Time;durP1;ratioP1;P1;durP2;ratioP2;P2;SDS_P1;SDS_P2;PMS_P1;PMS_P2;Temp;Humidity;BMP_temperature;BMP_pressure;BME280_temperature;BME280_humidity;BME280_pressure;Samples;Min_cycle;Max_cycle;Signal;HPM_P1;HPM_P2
2024/01/27 00:00:00;;;;;;;;;;;17.30;54.10;;;;;;7398514;19;1796;-63
2024/01/27 00:02:26;;;;;;;;;;;17.30;54.20;;;;;;7397639;19;1933;-63
2024/01/27 00:04:51;;;;;;;;;;;17.30;54.20;;;;;;7399215;19;2304;-63
2024/01/27 00:07:16;;;;;;;;;;;17.20;54.20;;;;;;7393817;19;1842;-63
2024/01/27 00:09:43;;;;;;;;;;;17.20;54.30;;;;;;7397895;19;1860;-63
2024/01/27 00:12:08;;;;;;;;;;;17.20;54.30;;;;;;7397460;19;1940;-62
2024/01/27 00:14:34;;;;;;;;;;;17.20;54.20;;;;;;7396817;19;1907;-64
2024/01/27 00:16:59;;;;;;;;;;;17.20;54.30;;;;;;7395994;19;776;-63
2024/01/27 00:19:24;;;;;;;;;;;17.20;54.40;;;;;;7394157;19;2531;-63
2024/01/27 00:21:50;;;;;;;;;;;17.20;54.50;;;;;;7394553;19;793;-62
2024/01/27 00:24:15;;;;;;;;;;;17.10;54.30;;;;;;7393899;19;1069;-63
2024/01/27 00:26:41;;;;;;;;;;;17.10;54.30;;;;;;7393020;19;1834;-63
2024/01/27 00:29:06;;;;;;;;;;;17.10;54.50;;;;;;7399818;19;1650;-63
2024/01/27 00:31:32;;;;;;;;;;;17.10;54.50;;;;;;7397168;19;891;-63
2024/01/27 00:33:57;;;;;;;;;;;17.10;54.50;;;;;;7393508;19;962;-63
2024/01/27 00:36:23;;;;;;;;;;;17.10;54.60;;;;;;7395188;19;1065;-62
2024/01/27 00:38:48;;;;;;;;;;;17.00;54.50;;;;;;7394873;19;1494;-63
2024/01/27 00:41:17;;;;;;;;;;;17.00;54.50;;;;;;7392965;19;926;-63
2024/01/27 00:43:42;;;;;;;;;;;17.00;54.60;;;;;;7395601;19;1539;-63
2024/01/27 00:46:08;;;;;;;;;;;17.00;54.50;;;;;;7392524;19;1853;-63
2024/01/27 00:48:33;;;;;;;;;;;17.00;54.50;;;;;;7396589;19;2059;-63
2024/01/27 00:50:59;;;;;;;;;;;17.00;54.70;;;;;;7394187;19;2112;-63
2024/01/27 00:53:24;;;;;;;;;;;17.00;54.60;;;;;;7398038;19;1363;-63
2024/01/27 00:55:50;;;;;;;;;;;16.90;54.60;;;;;;7395830;19;2009;-63
2024/01/27 00:58:16;;;;;;;;;;;16.90;54.70;;;;;;7394029;19;843;-63
2024/01/27 01:00:41;;;;;;;;;;;16.90;54.70;;;;;;7398320;19;1420;-63
2024/01/27 01:03:06;;;;;;;;;;;16.90;54.70;;;;;;7392778;19;1022;-63
2024/01/27 01:05:32;;;;;;;;;;;16.90;54.80;;;;;;7392967;19;998;-63
2024/01/27 01:07:57;;;;;;;;;;;16.80;54.80;;;;;;7394046;19;1995;-63
2024/01/27 01:10:23;;;;;;;;;;;16.80;54.70;;;;;;7396362;19;1718;-63
2024/01/27 01:12:48;;;;;;;;;;;16.80;54.80;;;;;;7396021;19;1636;-63
2024/01/27 01:15:14;;;;;;;;;;;16.80;54.80;;;;;;7394427;19;1782;-63
2024/01/27 01:17:39;;;;;;;;;;;16.80;54.80;;;;;;7391926;19;910;-63
2024/01/27 01:20:05;;;;;;;;;;;16.80;54.90;;;;;;7393195;19;1534;-63
2024/01/27 01:22:31;;;;;;;;;;;16.80;54.90;;;;;;7392044;19;871;-63
2024/01/27 01:24:56;;;;;;;;;;;16.80;55.10;;;;;;7395954;19;1636;-63
2024/01/27 01:27:21;;;;;;;;;;;16.70;55.00;;;;;;7396523;19;1844;-63
2024/01/27 01:29:47;;;;;;;;;;;16.70;54.90;;;;;;7395555;19;1578;-63
2024/01/27 01:32:13;;;;;;;;;;;16.70;54.90;;;;;;7397037;19;990;-63
2024/01/27 01:34:38;;;;;;;;;;;16.70;55.10;;;;;;7391834;19;883;-63
2024/01/27 01:37:04;;;;;;;;;;;16.70;55.10;;;;;;7395432;19;1616;-63
2024/01/27 01:39:29;;;;;;;;;;;16.70;55.00;;;;;;7395739;19;1664;-63
2024/01/27 01:41:54;;;;;;;;;;;16.70;55.00;;;;;;7393290;19;2231;-63
2024/01/27 01:44:20;;;;;;;;;;;16.70;55.00;;;;;;7391784;19;2604;-63
2024/01/27 01:46:45;;;;;;;;;;;16.70;55.10;;;;;;7393481;19;2070;-63
2024/01/27 01:49:11;;;;;;;;;;;16.60;55.00;;;;;;7393253;19;1920;-63
2024/01/27 01:51:36;;;;;;;;;;;16.60;55.20;;;;;;7393056;19;2135;-63
2024/01/27 01:54:02;;;;;;;;;;;16.60;55.10;;;;;;7396678;19;1504;-63
2024/01/27 01:56:27;;;;;;;;;;;16.60;55.10;;;;;;7395964;19;2262;-62
2024/01/27 01:58:53;;;;;;;;;;;16.60;55.10;;;;;;7395459;19;2056;-63
2024/01/27 02:01:21;;;;;;;;;;;16.60;55.20;;;;;;7394452;19;1888;-63
2024/01/27 02:03:53;;;;;;;;;;;16.60;55.30;;;;;;7392257;19;1628;-62
2024/01/27 02:06:18;;;;;;;;;;;16.60;55.20;;;;;;7388848;19;1834;-63
2024/01/27 02:08:44;;;;;;;;;;;16.60;55.20;;;;;;7392539;19;1612;-63
2024/01/27 02:11:09;;;;;;;;;;;16.60;55.20;;;;;;7394195;19;1666;-63
2024/01/27 02:13:35;;;;;;;;;;;16.60;55.20;;;;;;7393668;19;2028;-63
2024/01/27 02:16:00;;;;;;;;;;;16.60;55.00;;;;;;7392918;19;1751;-63
2024/01/27 02:18:25;;;;;;;;;;;16.70;54.80;;;;;;7394099;19;2312;-63
2024/01/27 02:20:51;;;;;;;;;;;16.90;54.90;;;;;;7390851;19;2311;-63
2024/01/27 02:23:16;;;;;;;;;;;17.00;54.60;;;;;;7396004;19;1903;-63
2024/01/27 02:25:42;;;;;;;;;;;17.30;54.10;;;;;;7399334;19;1518;-63
2024/01/27 02:28:07;;;;;;;;;;;17.60;53.80;;;;;;7397506;19;2244;-63
2024/01/27 02:30:33;;;;;;;;;;;17.90;53.10;;;;;;7399901;19;1834;-63
2024/01/27 02:32:58;;;;;;;;;;;18.20;52.30;;;;;;7401940;19;2401;-62
2024/01/27 02:35:24;;;;;;;;;;;18.60;51.70;;;;;;7398756;19;2041;-64
2024/01/27 02:37:49;;;;;;;;;;;18.80;51.00;;;;;;7398823;19;2078;-62
2024/01/27 02:40:15;;;;;;;;;;;19.10;50.60;;;;;;7400975;19;1930;-63
2024/01/27 02:42:43;;;;;;;;;;;19.20;50.20;;;;;;7397248;19;1202;-63
2024/01/27 02:45:09;;;;;;;;;;;19.30;50.00;;;;;;7399747;19;2036;-63
2024/01/27 02:47:35;;;;;;;;;;;19.30;50.00;;;;;;7400165;19;1955;-63
2024/01/27 02:50:00;;;;;;;;;;;19.20;50.10;;;;;;7399781;19;2055;-63
2024/01/27 02:52:27;;;;;;;;;;;19.20;50.10;;;;;;7400208;19;2024;-63
2024/01/27 02:54:52;;;;;;;;;;;19.20;50.20;;;;;;7400666;19;2059;-63
2024/01/27 02:57:19;;;;;;;;;;;19.10;50.30;;;;;;7400277;19;2200;-63
2024/01/27 02:59:48;;;;;;;;;;;19.00;50.30;;;;;;7399497;19;1895;-63
2024/01/27 03:02:13;;;;;;;;;;;18.90;50.30;;;;;;7400774;19;1824;-63
2024/01/27 03:04:39;;;;;;;;;;;18.90;50.50;;;;;;7400764;19;2330;-63
2024/01/27 03:07:04;;;;;;;;;;;18.90;50.50;;;;;;7398584;19;1861;-62
2024/01/27 03:09:30;;;;;;;;;;;18.80;50.60;;;;;;7398869;19;2302;-63
2024/01/27 03:11:56;;;;;;;;;;;18.80;50.70;;;;;;7398356;19;1847;-63
2024/01/27 03:14:21;;;;;;;;;;;18.70;50.70;;;;;;7399213;19;1593;-63
2024/01/27 03:16:47;;;;;;;;;;;18.60;50.90;;;;;;7399907;19;1909;-63
2024/01/27 03:19:12;;;;;;;;;;;18.60;50.90;;;;;;7396335;19;1053;-63
2024/01/27 03:21:37;;;;;;;;;;;18.50;51.10;;;;;;7397100;19;1849;-63
2024/01/27 03:24:03;;;;;;;;;;;18.50;51.20;;;;;;7398135;19;1402;-63
2024/01/27 03:26:29;;;;;;;;;;;18.50;51.20;;;;;;7398629;19;1861;-62
2024/01/27 03:28:54;;;;;;;;;;;18.40;51.20;;;;;;7401169;19;1658;-63
2024/01/27 03:31:20;;;;;;;;;;;18.30;51.30;;;;;;7397281;19;831;-63
2024/01/27 03:33:45;;;;;;;;;;;18.30;51.30;;;;;;7398791;19;1490;-62
2024/01/27 03:36:11;;;;;;;;;;;18.30;51.30;;;;;;7396678;19;2319;-64
2024/01/27 03:38:37;;;;;;;;;;;18.30;51.60;;;;;;7400130;19;1999;-63
2024/01/27 03:41:03;;;;;;;;;;;18.20;51.90;;;;;;7395030;19;809;-64
2024/01/27 03:43:28;;;;;;;;;;;18.10;52.00;;;;;;7397944;19;1666;-63
2024/01/27 03:45:54;;;;;;;;;;;18.10;52.10;;;;;;7397696;19;1800;-63
2024/01/27 03:48:19;;;;;;;;;;;18.20;52.00;;;;;;7398821;19;1850;-63
2024/01/27 03:50:44;;;;;;;;;;;18.20;51.80;;;;;;7398231;19;1831;-63
2024/01/27 03:53:10;;;;;;;;;;;18.30;51.60;;;;;;7397205;19;1915;-63
2024/01/27 03:55:35;;;;;;;;;;;18.30;51.40;;;;;;7400850;19;1946;-62
2024/01/27 03:58:01;;;;;;;;;;;18.40;51.30;;;;;;7395915;19;1941;-63
2024/01/27 04:00:29;;;;;;;;;;;18.40;51.10;;;;;;7397145;19;1899;-62
2024/01/27 04:02:54;;;;;;;;;;;18.40;51.00;;;;;;7396570;19;883;-63
2024/01/27 04:05:20;;;;;;;;;;;18.40;51.00;;;;;;7395722;19;2271;-63
2024/01/27 04:07:45;;;;;;;;;;;18.40;50.90;;;;;;7394968;19;1850;-63
2024/01/27 04:10:10;;;;;;;;;;;18.40;50.80;;;;;;7398369;19;1695;-63
2024/01/27 04:12:36;;;;;;;;;;;18.40;50.70;;;;;;7397762;19;1522;-63
2024/01/27 04:15:01;;;;;;;;;;;18.40;50.70;;;;;;7395177;19;2430;-62
2024/01/27 04:17:27;;;;;;;;;;;18.30;50.80;;;;;;7398267;19;1801;-63
2024/01/27 04:19:52;;;;;;;;;;;18.30;50.90;;;;;;7397319;19;1494;-64
2024/01/27 04:22:18;;;;;;;;;;;18.20;51.00;;;;;;7400070;19;1945;-63
2024/01/27 04:24:43;;;;;;;;;;;18.20;51.00;;;;;;7395211;19;1911;-63
2024/01/27 04:27:08;;;;;;;;;;;18.20;51.00;;;;;;7396864;19;1858;-62
2024/01/27 04:29:35;;;;;;;;;;;18.20;50.90;;;;;;7393496;19;1931;-63
2024/01/27 04:32:01;;;;;;;;;;;18.20;50.90;;;;;;7397587;19;1763;-63
2024/01/27 04:34:27;;;;;;;;;;;18.20;50.70;;;;;;7397066;19;995;-62
2024/01/27 04:36:52;;;;;;;;;;;18.20;50.60;;;;;;7395554;19;1536;-63
2024/01/27 04:39:17;;;;;;;;;;;18.30;50.80;;;;;;7395540;19;1544;-63
2024/01/27 04:41:43;;;;;;;;;;;18.30;50.80;;;;;;7395785;19;2207;-63
2024/01/27 04:44:09;;;;;;;;;;;18.30;50.60;;;;;;7398986;19;1899;-63
2024/01/27 04:46:34;;;;;;;;;;;18.30;50.50;;;;;;7393041;19;1849;-63
2024/01/27 04:49:00;;;;;;;;;;;18.30;50.40;;;;;;7394957;19;814;-62
2024/01/27 04:51:25;;;;;;;;;;;18.30;50.30;;;;;;7396472;19;784;-63
2024/01/27 04:53:50;;;;;;;;;;;18.20;50.40;;;;;;7394641;19;1058;-63
2024/01/27 04:56:16;;;;;;;;;;;18.30;50.30;;;;;;7394554;19;1521;-63
2024/01/27 04:58:41;;;;;;;;;;;18.30;50.20;;;;;;7393485;19;1687;-63
2024/01/27 05:01:07;;;;;;;;;;;18.30;50.10;;;;;;7390563;19;3003;-62
2024/01/27 05:03:32;;;;;;;;;;;18.40;49.90;;;;;;7397322;19;1934;-63
2024/01/27 05:05:58;;;;;;;;;;;18.40;49.80;;;;;;7391955;19;1240;-62
2024/01/27 05:08:23;;;;;;;;;;;18.40;49.70;;;;;;7394052;19;1850;-63
2024/01/27 05:10:48;;;;;;;;;;;18.40;49.60;;;;;;7391076;19;2572;-63
2024/01/27 05:13:14;;;;;;;;;;;18.40;49.60;;;;;;7395167;19;2770;-63
2024/01/27 05:15:39;;;;;;;;;;;18.40;49.70;;;;;;7395187;19;1504;-63
2024/01/27 05:18:05;;;;;;;;;;;18.30;49.60;;;;;;7394512;19;2064;-63
2024/01/27 05:20:30;;;;;;;;;;;18.30;49.60;;;;;;7394815;19;1803;-63
2024/01/27 05:22:56;;;;;;;;;;;18.30;49.60;;;;;;7393785;19;2292;-63
2024/01/27 05:25:21;;;;;;;;;;;18.30;49.70;;;;;;7394674;19;1767;-63
2024/01/27 05:27:46;;;;;;;;;;;18.30;49.70;;;;;;7392312;19;1844;-63
2024/01/27 05:30:12;;;;;;;;;;;18.20;49.80;;;;;;7391193;19;1118;-62
2024/01/27 05:32:37;;;;;;;;;;;18.20;49.70;;;;;;7398151;19;868;-63
2024/01/27 05:35:04;;;;;;;;;;;18.30;49.60;;;;;;7389853;19;2084;-63
2024/01/27 05:37:30;;;;;;;;;;;18.30;49.50;;;;;;7392297;19;2537;-63
2024/01/27 05:39:56;;;;;;;;;;;18.30;49.50;;;;;;7391374;19;875;-63
2024/01/27 05:42:21;;;;;;;;;;;18.30;49.50;;;;;;7393571;19;2188;-63
2024/01/27 05:44:47;;;;;;;;;;;18.40;49.40;;;;;;7391836;19;1116;-63
2024/01/27 05:47:12;;;;;;;;;;;18.30;49.30;;;;;;7391363;19;1984;-63
2024/01/27 05:49:38;;;;;;;;;;;18.30;49.20;;;;;;7396712;19;854;-64
2024/01/27 05:52:03;;;;;;;;;;;18.30;49.30;;;;;;7391483;19;859;-62
2024/01/27 05:54:29;;;;;;;;;;;18.30;49.20;;;;;;7393298;19;2289;-62
2024/01/27 05:56:54;;;;;;;;;;;18.30;49.30;;;;;;7394791;19;1913;-63
2024/01/27 05:59:20;;;;;;;;;;;18.30;49.20;;;;;;7401283;19;840;-63
2024/01/27 06:01:45;;;;;;;;;;;18.30;49.00;;;;;;7401496;19;2077;-63
2024/01/27 06:04:12;;;;;;;;;;;18.30;49.20;;;;;;7400999;19;2206;-62
2024/01/27 06:06:38;;;;;;;;;;;18.20;49.20;;;;;;7396024;19;2088;-63
2024/01/27 06:09:03;;;;;;;;;;;18.30;49.80;;;;;;7403961;19;2013;-63
2024/01/27 06:11:29;;;;;;;;;;;18.30;49.10;;;;;;7400722;19;1433;-63
2024/01/27 06:13:54;;;;;;;;;;;18.30;49.20;;;;;;7401357;19;1910;-63
2024/01/27 06:16:20;;;;;;;;;;;18.30;49.20;;;;;;7401633;19;1386;-63
2024/01/27 06:18:45;;;;;;;;;;;18.30;49.20;;;;;;7400099;19;999;-63
2024/01/27 06:21:11;;;;;;;;;;;18.30;49.10;;;;;;7399707;19;1984;-63
2024/01/27 06:23:36;;;;;;;;;;;18.30;49.80;;;;;;7399425;19;2014;-63
2024/01/27 06:26:06;;;;;;;;;;;18.30;49.30;;;;;;7401805;19;1333;-63
2024/01/27 06:28:31;;;;;;;;;;;18.20;49.20;;;;;;7401335;19;2258;-63
2024/01/27 06:30:57;;;;;;;;;;;18.20;49.30;;;;;;7403452;19;1917;-62
2024/01/27 06:33:23;;;;;;;;;;;18.20;49.40;;;;;;7401886;19;781;-63
2024/01/27 06:35:48;;;;;;;;;;;18.20;49.30;;;;;;7400411;19;1928;-63
2024/01/27 06:38:14;;;;;;;;;;;18.20;49.30;;;;;;7396542;19;1064;-62
2024/01/27 06:40:39;;;;;;;;;;;18.20;49.30;;;;;;7401260;19;1623;-62
2024/01/27 06:43:05;;;;;;;;;;;18.20;49.30;;;;;;7401930;19;1424;-63
2024/01/27 06:45:30;;;;;;;;;;;18.20;49.30;;;;;;7399960;19;1276;-64
2024/01/27 06:47:56;;;;;;;;;;;18.20;49.10;;;;;;7395726;19;1838;-63
2024/01/27 06:50:22;;;;;;;;;;;18.10;49.00;;;;;;7396504;19;2616;-63
2024/01/27 06:52:48;;;;;;;;;;;18.10;49.10;;;;;;7400899;19;2024;-63
2024/01/27 06:55:13;;;;;;;;;;;18.20;49.10;;;;;;7398601;19;1903;-63
2024/01/27 06:57:40;;;;;;;;;;;18.10;49.00;;;;;;7400905;19;1639;-63
2024/01/27 07:00:06;;;;;;;;;;;18.20;49.20;;;;;;7399823;19;1750;-63
2024/01/27 07:02:31;;;;;;;;;;;18.20;49.20;;;;;;7398174;19;2654;-63
2024/01/27 07:04:57;;;;;;;;;;;18.20;49.20;;;;;;7400436;19;1591;-63
2024/01/27 07:07:24;;;;;;;;;;;18.20;49.20;;;;;;7397912;19;1858;-62
2024/01/27 07:09:49;;;;;;;;;;;18.30;49.20;;;;;;7397925;19;1622;-63
2024/01/27 07:12:14;;;;;;;;;;;18.30;49.00;;;;;;7396225;19;1648;-63
2024/01/27 07:14:40;;;;;;;;;;;18.40;49.00;;;;;;7397117;19;1644;-63
2024/01/27 07:17:05;;;;;;;;;;;18.40;49.00;;;;;;7397848;19;795;-63
2024/01/27 07:19:31;;;;;;;;;;;18.40;48.80;;;;;;7400071;19;2215;-63
2024/01/27 07:21:56;;;;;;;;;;;18.50;48.90;;;;;;7397014;19;2139;-62
2024/01/27 07:24:22;;;;;;;;;;;18.50;48.80;;;;;;7397559;19;1897;-63
2024/01/27 07:26:47;;;;;;;;;;;18.50;48.80;;;;;;7397553;19;1911;-63
2024/01/27 07:29:13;;;;;;;;;;;18.50;48.80;;;;;;7401707;19;1730;-63
2024/01/27 07:31:38;;;;;;;;;;;18.50;48.80;;;;;;7399314;19;1793;-63
2024/01/27 07:34:06;;;;;;;;;;;18.50;48.90;;;;;;7395785;19;1405;-63
2024/01/27 07:36:32;;;;;;;;;;;18.40;48.80;;;;;;7396251;19;916;-62
2024/01/27 07:38:58;;;;;;;;;;;18.40;48.90;;;;;;7397363;19;1580;-63
2024/01/27 07:41:23;;;;;;;;;;;18.40;49.00;;;;;;7399163;19;990;-63
2024/01/27 07:43:48;;;;;;;;;;;18.40;49.10;;;;;;7399419;19;1582;-63
2024/01/27 07:46:14;;;;;;;;;;;18.30;49.00;;;;;;7393961;19;2061;-63
2024/01/27 07:48:39;;;;;;;;;;;18.30;49.20;;;;;;7397977;19;2028;-62
2024/01/27 07:51:05;;;;;;;;;;;18.30;49.20;;;;;;7398078;19;1884;-63
2024/01/27 07:53:30;;;;;;;;;;;18.30;49.30;;;;;;7397135;19;851;-62
2024/01/27 07:55:56;;;;;;;;;;;18.30;49.30;;;;;;7399817;19;1979;-63
2024/01/27 07:58:21;;;;;;;;;;;18.30;49.30;;;;;;7393650;19;1406;-63
2024/01/27 08:00:47;;;;;;;;;;;18.30;49.30;;;;;;7390752;19;927;-62
2024/01/27 08:03:12;;;;;;;;;;;18.30;49.30;;;;;;7390920;19;2566;-63
2024/01/27 08:05:37;;;;;;;;;;;18.30;49.20;;;;;;7392715;19;747;-63
2024/01/27 08:08:03;;;;;;;;;;;18.30;49.20;;;;;;7389839;19;2337;-63
2024/01/27 08:10:29;;;;;;;;;;;18.30;49.10;;;;;;7394758;19;1345;-63
2024/01/27 08:12:54;;;;;;;;;;;18.30;49.00;;;;;;7392325;19;2088;-63
2024/01/27 08:15:20;;;;;;;;;;;18.40;49.10;;;;;;7397984;19;1957;-63
2024/01/27 08:17:45;;;;;;;;;;;18.40;49.10;;;;;;7396627;19;875;-63
2024/01/27 08:20:11;;;;;;;;;;;18.40;49.10;;;;;;7392390;19;2195;-63
2024/01/27 08:22:36;;;;;;;;;;;18.30;49.20;;;;;;7398116;19;1987;-63
2024/01/27 08:25:02;;;;;;;;;;;18.40;49.00;;;;;;7396520;19;2430;-64
2024/01/27 08:27:27;;;;;;;;;;;18.50;49.10;;;;;;7395365;19;1904;-62
2024/01/27 08:29:53;;;;;;;;;;;18.50;49.00;;;;;;7398123;19;2010;-63
2024/01/27 08:32:18;;;;;;;;;;;18.50;49.00;;;;;;7398693;19;1857;-63
2024/01/27 08:34:44;;;;;;;;;;;18.50;49.00;;;;;;7394619;19;2012;-62
2024/01/27 08:37:19;;;;;;;;;;;18.40;49.10;;;;;;7392728;19;836;-63
2024/01/27 08:39:44;;;;;;;;;;;18.30;49.30;;;;;;7394698;19;1565;-63
2024/01/27 08:42:10;;;;;;;;;;;18.30;49.40;;;;;;7394812;19;1065;-62
2024/01/27 08:44:35;;;;;;;;;;;18.20;49.30;;;;;;7399128;19;1496;-62
2024/01/27 08:47:01;;;;;;;;;;;18.20;49.50;;;;;;7392291;19;1978;-63
2024/01/27 08:49:26;;;;;;;;;;;18.20;49.40;;;;;;7397970;19;989;-62
2024/01/27 08:51:52;;;;;;;;;;;18.20;49.40;;;;;;7396964;19;1794;-63
2024/01/27 08:54:17;;;;;;;;;;;18.30;49.40;;;;;;7395751;19;1878;-63
2024/01/27 08:56:42;;;;;;;;;;;18.40;49.30;;;;;;7395869;19;2153;-63
2024/01/27 08:59:08;;;;;;;;;;;18.40;49.20;;;;;;7396661;19;1466;-63
2024/01/27 09:01:33;;;;;;;;;;;18.40;49.10;;;;;;7397914;19;1419;-63
2024/01/27 09:04:00;;;;;;;;;;;18.50;49.20;;;;;;7395366;19;1686;-63
2024/01/27 09:06:25;;;;;;;;;;;18.40;49.10;;;;;;7394883;19;2531;-63
2024/01/27 09:08:51;;;;;;;;;;;18.30;49.30;;;;;;7394904;19;1575;-62
2024/01/27 09:11:16;;;;;;;;;;;18.30;49.50;;;;;;7394288;19;1688;-63
2024/01/27 09:13:44;;;;;;;;;;;18.30;49.50;;;;;;7397721;19;1775;-62
2024/01/27 09:16:12;;;;;;;;;;;18.30;49.40;;;;;;7397099;19;1598;-63
2024/01/27 09:18:37;;;;;;;;;;;18.30;49.30;;;;;;7394317;19;1616;-63
2024/01/27 09:21:03;;;;;;;;;;;18.40;49.20;;;;;;7390713;19;1093;-63
2024/01/27 09:23:28;;;;;;;;;;;18.50;49.20;;;;;;7392390;19;1449;-63
2024/01/27 09:25:54;;;;;;;;;;;18.50;49.30;;;;;;7392174;19;1163;-63
2024/01/27 09:28:19;;;;;;;;;;;18.60;49.20;;;;;;7394182;19;1862;-63
2024/01/27 09:30:45;;;;;;;;;;;18.60;49.20;;;;;;7395896;19;1657;-63
2024/01/27 09:33:10;;;;;;;;;;;18.60;49.20;;;;;;7392961;19;1578;-63
2024/01/27 09:35:36;;;;;;;;;;;18.60;49.20;;;;;;7394818;19;1470;-63
2024/01/27 09:38:01;;;;;;;;;;;18.60;49.20;;;;;;7391359;19;1493;-63
2024/01/27 09:40:26;;;;;;;;;;;18.60;49.10;;;;;;7395175;19;1568;-63
2024/01/27 09:42:55;;;;;;;;;;;18.60;49.10;;;;;;7393537;19;1430;-63
2024/01/27 09:45:21;;;;;;;;;;;18.60;49.10;;;;;;7392601;19;1018;-63
2024/01/27 09:47:46;;;;;;;;;;;18.70;49.80;;;;;;7390322;19;1838;-63
2024/01/27 09:50:12;;;;;;;;;;;18.60;49.10;;;;;;7389350;19;1899;-63
2024/01/27 09:52:37;;;;;;;;;;;18.60;49.10;;;;;;7391798;19;852;-63
2024/01/27 09:55:03;;;;;;;;;;;18.60;49.20;;;;;;7391095;19;895;-63
2024/01/27 09:57:29;;;;;;;;;;;18.60;49.30;;;;;;7392882;19;1058;-63
2024/01/27 09:59:54;;;;;;;;;;;18.60;49.30;;;;;;7394716;19;1625;-63
2024/01/27 10:02:20;;;;;;;;;;;18.60;49.50;;;;;;7394574;19;1019;-63
2024/01/27 10:04:48;;;;;;;;;;;18.60;49.40;;;;;;7394404;19;1679;-63
2024/01/27 10:07:13;;;;;;;;;;;18.60;49.50;;;;;;7391882;19;3141;-63
2024/01/27 10:09:40;;;;;;;;;;;18.50;49.50;;;;;;7395849;19;1611;-63
2024/01/27 10:12:06;;;;;;;;;;;18.50;49.50;;;;;;7394490;19;1513;-63
2024/01/27 10:14:41;;;;;;;;;;;18.60;49.70;;;;;;7392769;19;1559;-63
2024/01/27 10:17:10;;;;;;;;;;;18.60;49.40;;;;;;7393824;19;1547;-63
2024/01/27 10:19:36;;;;;;;;;;;18.70;49.40;;;;;;7394953;19;1661;-63
2024/01/27 10:22:04;;;;;;;;;;;18.70;49.40;;;;;;7391532;19;1777;-63
2024/01/27 10:24:35;;;;;;;;;;;18.70;49.50;;;;;;7391335;19;2164;-63
2024/01/27 10:27:01;;;;;;;;;;;18.70;49.30;;;;;;7390350;19;1846;-63
2024/01/27 10:29:26;;;;;;;;;;;18.80;49.60;;;;;;7394935;19;1674;-63
2024/01/27 10:31:51;;;;;;;;;;;18.80;49.40;;;;;;7391814;19;1493;-63
2024/01/27 10:34:19;;;;;;;;;;;18.90;49.50;;;;;;7394122;19;1503;-63
2024/01/27 10:36:45;;;;;;;;;;;18.90;49.30;;;;;;7389801;19;1663;-63
2024/01/27 10:39:13;;;;;;;;;;;18.90;49.40;;;;;;7391274;19;1804;-63
2024/01/27 10:41:39;;;;;;;;;;;18.90;49.40;;;;;;7394935;19;1792;-63
2024/01/27 10:44:05;;;;;;;;;;;18.90;49.40;;;;;;7396494;19;2075;-63
2024/01/27 10:46:30;;;;;;;;;;;18.90;49.30;;;;;;7397655;19;1846;-64
2024/01/27 10:48:55;;;;;;;;;;;19.00;49.40;;;;;;7400708;19;1967;-63
2024/01/27 10:51:28;;;;;;;;;;;19.00;49.50;;;;;;7398770;19;1525;-63
2024/01/27 10:53:53;;;;;;;;;;;19.00;49.50;;;;;;7400630;19;1498;-63
2024/01/27 10:56:19;;;;;;;;;;;19.00;49.40;;;;;;7400577;19;1514;-63
2024/01/27 10:58:44;;;;;;;;;;;19.00;49.50;;;;;;7399833;19;1541;-63
2024/01/27 11:01:10;;;;;;;;;;;18.90;49.40;;;;;;7397629;19;1652;-63
2024/01/27 11:03:37;;;;;;;;;;;18.90;49.50;;;;;;7400268;19;1576;-63
2024/01/27 11:06:02;;;;;;;;;;;18.90;49.50;;;;;;7398446;19;2435;-63
2024/01/27 11:08:29;;;;;;;;;;;18.90;49.40;;;;;;7398636;19;2458;-63
2024/01/27 11:10:54;;;;;;;;;;;18.90;49.50;;;;;;7397204;19;1344;-63
2024/01/27 11:13:20;;;;;;;;;;;18.90;49.70;;;;;;7400302;19;1479;-63
2024/01/27 11:15:52;;;;;;;;;;;18.80;49.70;;;;;;7399902;19;1686;-63
2024/01/27 11:18:17;;;;;;;;;;;18.90;49.70;;;;;;7398664;19;1627;-63
2024/01/27 11:20:44;;;;;;;;;;;18.90;49.60;;;;;;7397429;19;1677;-63
2024/01/27 11:23:10;;;;;;;;;;;19.00;49.60;;;;;;7399101;19;1515;-63
2024/01/27 11:25:36;;;;;;;;;;;19.00;49.60;;;;;;7399282;19;1606;-63
2024/01/27 11:28:09;;;;;;;;;;;19.00;49.60;;;;;;7396507;19;1865;-63
2024/01/27 11:30:39;;;;;;;;;;;19.10;49.60;;;;;;7395454;19;1734;-63
2024/01/27 11:33:05;;;;;;;;;;;19.00;49.60;;;;;;7391765;19;1127;-64
2024/01/27 11:35:30;;;;;;;;;;;19.10;50.20;;;;;;7396012;19;1743;-63
2024/01/27 11:37:56;;;;;;;;;;;19.10;49.50;;;;;;7390825;19;1526;-63
2024/01/27 11:40:21;;;;;;;;;;;19.20;49.50;;;;;;7392984;19;983;-63
2024/01/27 11:43:07;;;;;;;;;;;19.20;49.50;;;;;;7394814;19;1568;-63
2024/01/27 11:45:32;;;;;;;;;;;19.20;49.50;;;;;;7399947;19;1661;-63
2024/01/27 11:47:57;;;;;;;;;;;19.20;49.60;;;;;;7399663;19;1841;-63
2024/01/27 11:50:23;;;;;;;;;;;19.20;49.60;;;;;;7396563;19;3143;-63
2024/01/27 11:52:49;;;;;;;;;;;19.20;49.60;;;;;;7400544;19;2006;-62
2024/01/27 11:55:15;;;;;;;;;;;19.20;49.60;;;;;;7394536;19;796;-63
2024/01/27 11:57:41;;;;;;;;;;;19.10;49.60;;;;;;7396340;19;1701;-63
2024/01/27 12:00:06;;;;;;;;;;;19.20;49.50;;;;;;7396164;19;816;-63
2024/01/27 12:02:32;;;;;;;;;;;19.20;49.60;;;;;;7400479;19;968;-63
2024/01/27 12:04:57;;;;;;;;;;;19.10;49.80;;;;;;7398302;19;1517;-64
2024/01/27 12:07:23;;;;;;;;;;;19.10;49.90;;;;;;7392614;19;2511;-63
2024/01/27 12:09:48;;;;;;;;;;;19.10;49.90;;;;;;7395772;19;982;-63
2024/01/27 12:12:14;;;;;;;;;;;19.10;49.90;;;;;;7392885;19;1817;-63
2024/01/27 12:14:40;;;;;;;;;;;19.10;49.80;;;;;;7398035;19;1743;-63
2024/01/27 12:17:10;;;;;;;;;;;19.20;49.80;;;;;;7395483;19;949;-63
2024/01/27 12:19:35;;;;;;;;;;;19.10;49.90;;;;;;7395124;19;1545;-63
2024/01/27 12:22:01;;;;;;;;;;;19.10;50.00;;;;;;7397645;19;1622;-63
2024/01/27 12:24:26;;;;;;;;;;;19.20;50.00;;;;;;7396598;19;1644;-64
2024/01/27 12:26:52;;;;;;;;;;;19.20;49.90;;;;;;7393184;19;1845;-63
2024/01/27 12:29:20;;;;;;;;;;;19.20;49.80;;;;;;7398584;19;1567;-63
2024/01/27 12:31:45;;;;;;;;;;;19.20;49.70;;;;;;7397034;19;1611;-63
2024/01/27 12:34:11;;;;;;;;;;;19.20;50.30;;;;;;7393919;19;1799;-63
2024/01/27 12:36:40;;;;;;;;;;;19.30;49.70;;;;;;7396534;19;1636;-63
2024/01/27 12:39:05;;;;;;;;;;;19.30;49.60;;;;;;7392161;19;1182;-63
2024/01/27 12:41:33;;;;;;;;;;;19.30;49.70;;;;;;7394627;19;1611;-63
2024/01/27 12:43:59;;;;;;;;;;;19.30;49.70;;;;;;7396945;19;1645;-63
2024/01/27 12:46:24;;;;;;;;;;;19.30;49.80;;;;;;7393067;19;1837;-64
2024/01/27 12:48:49;;;;;;;;;;;19.30;50.00;;;;;;7394868;19;776;-64
2024/01/27 12:51:15;;;;;;;;;;;19.30;49.60;;;;;;7394968;19;1711;-64
2024/01/27 12:53:41;;;;;;;;;;;19.30;49.60;;;;;;7394818;19;859;-64
2024/01/27 12:56:11;;;;;;;;;;;19.30;49.70;;;;;;7392788;19;886;-64
2024/01/27 12:58:36;;;;;;;;;;;19.20;49.90;;;;;;7393879;19;1645;-63
2024/01/27 13:01:02;;;;;;;;;;;19.20;50.10;;;;;;7393404;19;3597;-63
2024/01/27 13:03:27;;;;;;;;;;;19.20;50.00;;;;;;7395740;19;1424;-64
2024/01/27 13:05:56;;;;;;;;;;;19.20;50.00;;;;;;7393082;19;1697;-64
2024/01/27 13:08:21;;;;;;;;;;;19.20;50.10;;;;;;7392407;19;2897;-64
2024/01/27 13:10:47;;;;;;;;;;;19.10;50.10;;;;;;7397587;19;1507;-63
2024/01/27 13:13:12;;;;;;;;;;;19.10;50.10;;;;;;7394079;19;1026;-63
2024/01/27 13:15:38;;;;;;;;;;;19.20;50.30;;;;;;7396144;19;1561;-63
2024/01/27 13:18:03;;;;;;;;;;;19.10;50.30;;;;;;7393020;19;796;-63
2024/01/27 13:20:29;;;;;;;;;;;19.20;50.40;;;;;;7393950;19;1687;-63
2024/01/27 13:22:54;;;;;;;;;;;19.20;50.30;;;;;;7391982;19;839;-63
2024/01/27 13:25:20;;;;;;;;;;;19.20;50.30;;;;;;7394092;19;793;-64
2024/01/27 13:27:46;;;;;;;;;;;19.20;50.30;;;;;;7391300;19;1857;-63
2024/01/27 13:30:12;;;;;;;;;;;19.20;50.20;;;;;;7396350;19;1642;-63
2024/01/27 13:32:38;;;;;;;;;;;19.30;50.30;;;;;;7396832;19;792;-64
2024/01/27 13:35:03;;;;;;;;;;;19.30;50.30;;;;;;7393680;19;1566;-63
2024/01/27 13:37:33;;;;;;;;;;;19.30;50.30;;;;;;7391933;19;1193;-63
2024/01/27 13:40:02;;;;;;;;;;;19.30;50.20;;;;;;7395686;19;1444;-63
2024/01/27 13:42:28;;;;;;;;;;;19.30;50.20;;;;;;7393247;19;879;-63
2024/01/27 13:44:53;;;;;;;;;;;19.30;50.20;;;;;;7394723;19;1619;-64
2024/01/27 13:47:18;;;;;;;;;;;19.30;50.30;;;;;;7391142;19;1862;-63
2024/01/27 13:49:44;;;;;;;;;;;19.30;50.60;;;;;;7394727;19;1531;-63
2024/01/27 13:52:09;;;;;;;;;;;19.20;50.30;;;;;;7389435;19;1933;-63
2024/01/27 13:54:35;;;;;;;;;;;19.20;50.40;;;;;;7395315;19;1464;-63
2024/01/27 13:57:01;;;;;;;;;;;19.20;50.40;;;;;;7392907;19;1572;-63
2024/01/27 13:59:26;;;;;;;;;;;19.20;50.30;;;;;;7395132;19;1555;-63
2024/01/27 14:01:53;;;;;;;;;;;19.20;50.40;;;;;;7393610;19;967;-63
2024/01/27 14:04:18;;;;;;;;;;;19.20;50.40;;;;;;7394695;19;1817;-63
2024/01/27 14:06:44;;;;;;;;;;;19.20;50.40;;;;;;7390339;19;1838;-63
2024/01/27 14:09:09;;;;;;;;;;;19.20;50.30;;;;;;7393696;19;2497;-63
2024/01/27 14:11:34;;;;;;;;;;;19.20;50.30;;;;;;7390869;19;1503;-64
2024/01/27 14:14:00;;;;;;;;;;;19.20;50.30;;;;;;7392806;19;780;-63
2024/01/27 14:16:25;;;;;;;;;;;19.20;50.30;;;;;;7394025;19;1440;-63
2024/01/27 14:18:51;;;;;;;;;;;19.20;50.40;;;;;;7398782;19;1505;-64
2024/01/27 14:21:16;;;;;;;;;;;19.20;50.30;;;;;;7399744;19;1778;-65